createdAt,value
2022-08-05T00:00:18.782Z,65.68
2022-08-05T00:02:51.070Z,65.24
2022-08-05T00:06:02.663Z,65.15
2022-08-05T00:08:32.694Z,65.43
2022-08-05T00:11:00.919Z,65.73
2022-08-05T00:13:39.354Z,65.89
2022-08-05T00:16:12.574Z,66.35
2022-08-05T00:18:44.374Z,66.42
2022-08-05T00:21:14.233Z,66.79
2022-08-05T00:23:46.328Z,66.62
2022-08-05T00:26:20.883Z,66.80
2022-08-05T00:28:49.474Z,66.90
2022-08-05T00:31:16.654Z,67.58
2022-08-05T00:34:54.359Z,67.57
2022-08-05T00:37:09.721Z,67.94
2022-08-05T00:39:44.431Z,68.00
2022-08-05T00:42:33.479Z,68.25
2022-08-05T00:45:01.414Z,68.81
2022-08-05T00:47:53.403Z,68.81
2022-08-05T00:50:16.063Z,68.90
2022-08-05T00:52:45.528Z,69.26
2022-08-05T00:57:58.656Z,69.93
2022-08-05T01:00:28.016Z,70.22
2022-08-05T01:02:56.611Z,70.42
2022-08-05T01:05:24.011Z,71.07
2022-08-05T01:08:30.647Z,71.66
2022-08-05T01:10:51.688Z,71.56
2022-08-05T01:13:57.896Z,72.05
2022-08-05T01:16:48.689Z,72.12
2022-08-05T01:19:18.395Z,72.69
2022-08-05T01:22:07.108Z,72.43
2022-08-05T01:24:59.498Z,72.96
2022-08-05T01:27:55.895Z,72.63
2022-08-05T01:30:34.477Z,72.83
2022-08-05T01:33:08.027Z,73.03
2022-08-05T01:35:52.125Z,73.12
2022-08-05T01:38:27.190Z,73.20
2022-08-05T01:40:58.815Z,73.23
2022-08-05T01:43:28.115Z,73.77
2022-08-05T01:45:57.009Z,73.78
2022-08-05T01:48:29.846Z,73.64
2022-08-05T01:50:59.957Z,73.91
2022-08-05T01:53:56.974Z,73.76
2022-08-05T01:58:18.883Z,73.59
2022-08-05T01:59:17.987Z,73.53
2022-08-05T02:01:47.734Z,73.40
2022-08-05T02:04:18.378Z,73.40
2022-08-05T02:06:45.398Z,73.22
2022-08-05T02:09:16.510Z,73.00
2022-08-05T02:12:19.703Z,72.98
2022-08-05T02:15:04.577Z,73.10
2022-08-05T02:18:33.084Z,72.88
2022-08-05T02:20:58.705Z,73.18
2022-08-05T02:23:33.696Z,73.50
2022-08-05T02:26:05.113Z,73.20
2022-08-05T02:28:39.942Z,73.50
2022-08-05T02:31:20.958Z,73.15
2022-08-05T02:33:57.289Z,73.40
2022-08-05T02:36:27.273Z,72.99
2022-08-05T02:38:57.570Z,73.38
2022-08-05T02:41:28.772Z,73.48
2022-08-05T02:44:12.012Z,73.72
2022-08-05T02:46:53.323Z,73.81
2022-08-05T02:49:36.658Z,74.06
2022-08-05T02:52:07.569Z,74.33
2022-08-05T02:54:37.371Z,74.31
2022-08-05T02:58:10.175Z,74.38
2022-08-05T02:59:57.910Z,74.34
2022-08-05T03:02:34.315Z,74.66
2022-08-05T03:05:02.079Z,74.41
2022-08-05T03:07:59.147Z,74.40
2022-08-05T03:10:24.343Z,74.03
2022-08-05T03:12:52.475Z,74.00
2022-08-05T03:15:20.575Z,74.00
2022-08-05T03:17:47.464Z,74.16
2022-08-05T03:20:14.521Z,74.46
2022-08-05T03:22:44.249Z,74.29
2022-08-05T03:25:32.933Z,74.44
2022-08-05T03:28:09.089Z,74.29
2022-08-05T03:30:36.836Z,74.34
2022-08-05T03:33:07.534Z,74.35
2022-08-05T03:35:41.618Z,74.11
2022-08-05T03:38:11.403Z,73.54
2022-08-05T03:40:47.225Z,73.72
2022-08-05T03:44:09.571Z,74.30
2022-08-05T03:46:04.866Z,74.03
2022-08-05T03:48:35.693Z,74.43
2022-08-05T03:52:50.418Z,73.94
2022-08-05T03:55:51.363Z,73.97
2022-08-05T03:57:17.938Z,73.63
2022-08-05T03:59:55.615Z,73.68
2022-08-05T04:02:38.577Z,74.20
2022-08-05T04:05:13.166Z,74.48
2022-08-05T04:07:53.097Z,74.39
2022-08-05T04:10:25.248Z,74.40
2022-08-05T04:12:55.527Z,75.21
2022-08-05T04:15:27.821Z,75.18
2022-08-05T04:18:04.051Z,75.33
2022-08-05T04:20:34.579Z,75.40
2022-08-05T04:23:01.819Z,75.15
2022-08-05T04:25:56.856Z,75.78
2022-08-05T04:28:17.282Z,74.85
2022-08-05T04:30:45.127Z,74.64
2022-08-05T04:33:13.039Z,74.58
2022-08-05T04:36:16.517Z,74.20
2022-08-05T04:38:39.440Z,74.01
2022-08-05T04:41:09.535Z,73.53
2022-08-05T04:43:40.600Z,73.24
2022-08-05T04:46:15.128Z,73.11
2022-08-05T04:48:57.971Z,72.75
2022-08-05T04:51:25.790Z,72.71
2022-08-05T04:53:57.777Z,72.11
2022-08-05T04:56:35.117Z,71.65
2022-08-05T04:59:24.054Z,71.54
2022-08-05T05:02:07.117Z,70.82
2022-08-05T05:04:44.165Z,70.44
2022-08-05T05:07:17.150Z,70.30
2022-08-05T05:09:45.533Z,70.12
2022-08-05T05:12:12.380Z,69.92
2022-08-05T05:14:49.542Z,69.80
2022-08-05T05:17:23.268Z,69.28
2022-08-05T05:19:57.678Z,68.67
2022-08-05T05:22:26.053Z,68.36
2022-08-05T05:24:59.961Z,68.30
2022-08-05T05:27:41.439Z,68.03
2022-08-05T05:30:28.866Z,67.76
2022-08-05T05:33:00.423Z,67.46
2022-08-05T05:35:37.582Z,67.09
2022-08-05T05:38:08.935Z,66.60
2022-08-05T05:40:36.735Z,66.20
2022-08-05T05:43:03.690Z,66.24
2022-08-05T05:45:30.505Z,65.95
2022-08-05T05:48:06.210Z,65.93
2022-08-05T05:50:40.984Z,65.98
2022-08-05T05:53:21.600Z,65.98
2022-08-05T05:55:52.237Z,65.71
2022-08-05T05:58:31.514Z,65.00
2022-08-05T06:01:02.412Z,65.19
2022-08-05T06:04:00.323Z,63.37
2022-08-05T06:06:28.051Z,63.67
2022-08-05T06:08:58.647Z,63.42
2022-08-05T06:11:26.014Z,62.48
2022-08-05T06:13:55.425Z,62.02
2022-08-05T06:16:28.978Z,61.12
2022-08-05T06:19:01.869Z,60.89
2022-08-05T06:21:38.675Z,60.37
2022-08-05T06:24:12.036Z,60.03
2022-08-05T06:26:52.238Z,59.60
2022-08-05T06:29:42.911Z,58.90
2022-08-05T06:32:25.412Z,58.41
2022-08-05T06:34:57.858Z,56.27
2022-08-05T06:37:57.915Z,55.19
2022-08-05T06:40:14.023Z,53.36
2022-08-05T06:42:45.746Z,53.05
2022-08-05T06:45:21.046Z,52.62
2022-08-05T06:48:44.293Z,52.25
2022-08-05T06:50:35.603Z,52.64
2022-08-05T06:53:11.499Z,52.48
2022-08-05T06:55:41.963Z,51.84
2022-08-05T06:58:19.908Z,51.90
2022-08-05T07:01:04.600Z,50.10
2022-08-05T07:03:33.197Z,49.67
2022-08-05T07:06:06.126Z,49.00
2022-08-05T07:08:43.175Z,49.03
2022-08-05T07:11:16.285Z,49.90
2022-08-05T07:14:02.551Z,49.82
2022-08-05T07:17:58.597Z,50.14
2022-08-05T07:20:16.782Z,49.58
2022-08-05T07:22:28.730Z,47.94
2022-08-05T07:25:23.720Z,46.42
2022-08-05T07:27:56.529Z,44.13
2022-08-05T07:30:31.706Z,45.77
2022-08-05T07:33:01.460Z,46.91
2022-08-05T07:36:03.088Z,46.86
2022-08-05T07:38:32.896Z,46.67
2022-08-05T07:42:08.921Z,46.31
2022-08-05T07:43:58.121Z,43.65
2022-08-05T07:46:27.388Z,44.35
2022-08-05T07:49:01.877Z,42.65
2022-08-05T07:51:36.663Z,43.02
2022-08-05T07:54:06.165Z,42.15
2022-08-05T07:57:00.690Z,42.60
2022-08-05T07:59:31.037Z,42.30
2022-08-05T08:02:15.315Z,40.72
2022-08-05T08:04:48.966Z,41.62
2022-08-05T08:07:18.409Z,40.09
2022-08-05T08:09:52.454Z,39.72
2022-08-05T08:12:33.541Z,39.72
2022-08-05T08:15:05.546Z,39.78
2022-08-05T08:17:46.116Z,39.94
2022-08-05T08:20:43.729Z,40.09
2022-08-05T08:24:00.285Z,38.71
2022-08-05T08:25:59.356Z,38.40
2022-08-05T08:28:36.275Z,38.07
2022-08-05T08:31:09.760Z,37.42
2022-08-05T08:33:41.873Z,37.29
2022-08-05T08:36:37.557Z,37.25
2022-08-05T08:38:57.665Z,36.47
2022-08-05T08:41:51.066Z,36.13
2022-08-05T08:45:21.242Z,35.06
2022-08-05T08:47:47.285Z,35.00
2022-08-05T08:50:23.111Z,33.40
2022-08-05T08:52:53.016Z,33.64
2022-08-05T08:56:02.018Z,31.87
2022-08-05T08:58:09.908Z,31.27
2022-08-05T09:00:42.552Z,29.55
2022-08-05T09:03:11.378Z,28.42
2022-08-05T09:06:07.728Z,28.93
2022-08-05T09:08:26.575Z,27.57
2022-08-05T09:10:54.804Z,27.33
2022-08-05T09:13:23.619Z,26.73
2022-08-05T09:15:51.608Z,26.43
2022-08-05T09:18:18.819Z,25.47
2022-08-05T09:20:47.157Z,24.86
2022-08-05T09:23:19.541Z,24.05
2022-08-05T09:26:06.413Z,24.55
2022-08-05T09:28:37.451Z,23.71
2022-08-05T09:31:22.732Z,24.08
2022-08-05T09:34:06.581Z,24.17
2022-08-05T09:36:55.615Z,23.78
2022-08-05T09:39:41.167Z,23.06
2022-08-05T09:42:24.237Z,23.65
2022-08-05T09:44:57.204Z,23.06
2022-08-05T09:47:36.354Z,22.23
2022-08-05T09:50:38.173Z,22.28
2022-08-05T09:53:06.739Z,21.84
2022-08-05T09:55:56.421Z,21.31
2022-08-05T09:58:24.278Z,21.01
2022-08-05T10:00:58.955Z,21.83
2022-08-05T10:03:56.609Z,20.34
2022-08-05T10:06:15.785Z,20.87
2022-08-05T10:08:43.005Z,20.54
2022-08-05T10:11:17.628Z,20.29
2022-08-05T10:13:48.423Z,19.71
2022-08-05T10:16:37.871Z,19.41
2022-08-05T10:19:23.852Z,18.73
2022-08-05T10:22:09.087Z,18.75
2022-08-05T10:24:42.891Z,19.18
2022-08-05T10:27:16.613Z,19.44
2022-08-05T10:30:06.315Z,19.22
2022-08-05T10:32:54.146Z,18.83
2022-08-05T10:35:19.548Z,18.66
2022-08-05T10:37:48.740Z,19.15
2022-08-05T10:40:47.146Z,19.34
2022-08-05T10:43:20.724Z,18.63
2022-08-05T10:46:06.742Z,18.08
2022-08-05T10:48:56.851Z,18.07
2022-08-05T10:51:28.926Z,18.32
2022-08-05T10:54:05.929Z,18.48
2022-08-05T10:56:52.711Z,17.40
2022-08-05T11:00:02.512Z,17.25
2022-08-05T11:02:38.088Z,16.74
2022-08-05T11:05:10.206Z,16.42
2022-08-05T11:08:02.926Z,15.58
2022-08-05T11:10:38.375Z,15.61
2022-08-05T11:13:54.739Z,15.47
2022-08-05T11:16:33.825Z,15.61
2022-08-05T11:20:11.016Z,15.02
2022-08-05T11:22:38.651Z,15.02
2022-08-05T11:26:05.242Z,14.99
2022-08-05T11:28:17.180Z,15.50
2022-08-05T11:31:06.117Z,16.27
2022-08-05T11:33:46.485Z,15.68
2022-08-05T11:36:34.568Z,15.90
2022-08-05T11:39:06.823Z,15.70
2022-08-05T11:42:01.264Z,15.44
2022-08-05T11:44:40.873Z,14.91
2022-08-05T11:47:48.828Z,15.18
2022-08-05T11:50:14.348Z,15.56
2022-08-05T11:52:41.821Z,15.43
2022-08-05T11:55:12.587Z,14.53
2022-08-05T11:58:10.386Z,14.76
2022-08-05T12:00:38.562Z,14.37
2022-08-05T12:03:29.436Z,14.83
2022-08-05T12:06:05.930Z,14.51
2022-08-05T12:08:33.973Z,14.20
2022-08-05T12:11:09.062Z,14.26
2022-08-05T12:13:48.753Z,14.06
2022-08-05T12:16:25.525Z,14.37
2022-08-05T12:18:55.252Z,13.74
2022-08-05T12:21:26.819Z,13.58
2022-08-05T12:24:09.365Z,14.58
2022-08-05T12:26:43.878Z,14.60
2022-08-05T12:29:39.079Z,13.58
2022-08-05T12:32:07.635Z,12.71
2022-08-05T12:34:38.625Z,12.57
2022-08-05T12:37:17.403Z,12.83
2022-08-05T12:39:51.696Z,12.42
2022-08-05T12:42:20.574Z,13.10
2022-08-05T12:44:48.154Z,12.79
2022-08-05T12:47:28.743Z,12.38
2022-08-05T12:50:04.560Z,11.56
2022-08-05T12:52:42.428Z,11.42
2022-08-05T12:55:22.661Z,11.84
2022-08-05T12:58:39.102Z,12.52
2022-08-05T13:02:02.135Z,12.61
2022-08-05T13:03:32.212Z,12.02
2022-08-05T13:06:01.329Z,12.00
2022-08-05T13:08:33.035Z,11.92
2022-08-05T13:11:04.395Z,11.28
2022-08-05T13:14:04.539Z,11.37
2022-08-05T13:16:20.335Z,12.12
2022-08-05T13:18:55.301Z,11.78
2022-08-05T13:21:27.855Z,12.08
2022-08-05T13:24:05.198Z,12.47
2022-08-05T13:26:32.253Z,12.99
2022-08-05T13:28:59.493Z,12.57
2022-08-05T13:31:33.870Z,12.32
2022-08-05T13:34:23.867Z,12.20
2022-08-05T13:36:55.570Z,12.94
2022-08-05T13:39:24.630Z,13.25
2022-08-05T13:42:14.224Z,13.52
2022-08-05T13:44:45.346Z,13.85
2022-08-05T13:47:35.809Z,12.78
2022-08-05T13:52:31.510Z,12.92
2022-08-05T13:55:07.799Z,12.92
2022-08-05T13:57:48.686Z,12.41
2022-08-05T14:00:27.663Z,12.03
2022-08-05T14:02:56.985Z,12.28
2022-08-05T14:05:48.287Z,11.83
2022-08-05T14:08:21.048Z,11.83
2022-08-05T14:11:03.323Z,13.77
2022-08-05T14:13:41.775Z,14.11
2022-08-05T14:16:11.580Z,13.45
2022-08-05T14:18:43.562Z,12.98
2022-08-05T14:21:23.908Z,13.22
2022-08-05T14:23:57.256Z,13.16
2022-08-05T14:26:38.625Z,13.15
2022-08-05T14:29:16.126Z,12.79
2022-08-05T14:32:02.410Z,12.42
2022-08-05T14:34:35.008Z,12.66
2022-08-05T14:37:05.616Z,11.98
2022-08-05T14:39:49.637Z,12.00
2022-08-05T14:42:22.326Z,12.66
2022-08-05T14:44:49.786Z,12.29
2022-08-05T14:47:17.036Z,13.65
2022-08-05T14:50:12.798Z,13.66
2022-08-05T14:52:53.149Z,13.67
2022-08-05T14:55:24.499Z,13.52
2022-08-05T14:57:54.431Z,13.03
2022-08-05T15:00:28.026Z,13.66
2022-08-05T15:02:56.650Z,12.64
2022-08-05T15:05:29.755Z,12.16
2022-08-05T15:08:06.200Z,11.97
2022-08-05T15:10:43.457Z,12.31
2022-08-05T15:13:13.225Z,12.00
2022-08-05T15:15:55.283Z,12.09
2022-08-05T15:18:23.464Z,12.49
2022-08-05T15:20:50.928Z,12.47
2022-08-05T15:23:18.207Z,12.37
2022-08-05T15:25:52.603Z,12.45
2022-08-05T15:28:22.216Z,12.66
2022-08-05T15:30:54.663Z,12.76
2022-08-05T15:34:05.886Z,13.00
2022-08-05T15:36:16.875Z,13.32
2022-08-05T15:38:46.285Z,13.85
2022-08-05T15:41:21.926Z,14.10
2022-08-05T15:43:52.415Z,14.36
2022-08-05T15:46:24.097Z,14.47
2022-08-05T15:48:52.546Z,14.55
2022-08-05T15:52:13.518Z,15.41
2022-08-05T15:54:14.983Z,15.37
2022-08-05T15:56:42.517Z,16.18
2022-08-05T15:59:20.046Z,16.65
2022-08-05T16:01:53.279Z,16.70
2022-08-05T16:04:25.335Z,17.08
2022-08-05T16:06:55.913Z,17.62
2022-08-05T16:09:24.456Z,17.38
2022-08-05T16:11:53.197Z,17.21
2022-08-05T16:14:21.010Z,17.16
2022-08-05T16:16:49.788Z,17.05
2022-08-05T16:19:25.618Z,17.69
2022-08-05T16:22:05.608Z,17.70
2022-08-05T16:24:40.018Z,17.75
2022-08-05T16:27:09.222Z,17.69
2022-08-05T16:29:37.525Z,17.87
2022-08-05T16:32:06.626Z,17.86
2022-08-05T16:34:39.344Z,17.80
2022-08-05T16:38:15.338Z,17.97
2022-08-05T16:40:05.100Z,18.51
2022-08-05T16:42:35.773Z,18.39
2022-08-05T16:46:02.921Z,18.45
2022-08-05T16:47:55.622Z,18.29
2022-08-05T16:50:25.645Z,18.58
2022-08-05T16:52:52.762Z,18.79
2022-08-05T16:55:23.266Z,18.67
2022-08-05T16:57:59.871Z,18.83
2022-08-05T17:00:35.094Z,19.20
2022-08-05T17:03:15.263Z,19.51
2022-08-05T17:05:53.367Z,19.91
2022-08-05T17:08:33.606Z,20.17
2022-08-05T17:11:12.670Z,20.37
2022-08-05T17:13:45.295Z,20.74
2022-08-05T17:16:33.592Z,20.98
2022-08-05T17:19:00.686Z,21.19
2022-08-05T17:21:36.350Z,21.29
2022-08-05T17:24:19.865Z,21.48
2022-08-05T17:26:54.190Z,21.83
2022-08-05T17:29:34.022Z,22.48
2022-08-05T17:32:17.756Z,23.32
2022-08-05T17:34:48.101Z,24.40
2022-08-05T17:37:40.616Z,25.63
2022-08-05T17:40:12.161Z,27.12
2022-08-05T17:42:41.776Z,27.48
2022-08-05T17:45:21.205Z,28.00
2022-08-05T17:47:55.789Z,28.62
2022-08-05T17:50:28.090Z,29.11
2022-08-05T17:53:04.653Z,29.63
2022-08-05T17:55:34.517Z,30.69
2022-08-05T17:58:09.811Z,31.13
2022-08-05T18:00:44.628Z,31.66
2022-08-05T18:03:28.147Z,32.25
2022-08-05T18:06:04.618Z,32.58
2022-08-05T18:08:33.733Z,32.97
2022-08-05T18:11:03.195Z,33.24
2022-08-05T18:13:36.925Z,33.29
2022-08-05T18:16:13.591Z,33.49
2022-08-05T18:18:41.581Z,33.73
2022-08-05T18:21:21.451Z,33.96
2022-08-05T18:23:53.686Z,34.58
2022-08-05T18:26:28.965Z,35.42
2022-08-05T18:28:56.971Z,36.29
2022-08-05T18:31:24.351Z,36.93
2022-08-05T18:33:52.142Z,36.75
2022-08-05T18:36:19.417Z,36.79
2022-08-05T18:38:46.923Z,37.14
2022-08-05T18:41:59.217Z,37.22
2022-08-05T18:44:06.320Z,37.46
2022-08-05T18:46:34.895Z,37.64
2022-08-05T18:49:22.978Z,37.92
2022-08-05T18:52:16.148Z,38.52
2022-08-05T18:54:45.787Z,38.90
2022-08-05T18:57:15.216Z,39.19
2022-08-05T19:00:01.735Z,39.71
2022-08-05T19:02:30.695Z,40.67
2022-08-05T19:05:02.210Z,41.37
2022-08-05T19:07:50.199Z,42.20
2022-08-05T19:10:26.646Z,42.33
2022-08-05T19:12:58.979Z,42.23
2022-08-05T19:15:58.699Z,42.58
2022-08-05T19:18:20.739Z,43.06
2022-08-05T19:20:54.217Z,43.47
2022-08-05T19:24:05.216Z,43.93
2022-08-05T19:26:11.384Z,44.22
2022-08-05T19:28:43.580Z,45.44
2022-08-05T19:31:13.157Z,45.37
2022-08-05T19:33:48.159Z,45.69
2022-08-05T19:36:24.135Z,46.00
2022-08-05T19:38:51.697Z,46.12
2022-08-05T19:41:23.540Z,46.41
2022-08-05T19:44:13.518Z,47.34
2022-08-05T19:46:41.357Z,47.96
2022-08-05T19:49:12.566Z,47.76
2022-08-05T19:52:08.924Z,48.01
2022-08-05T19:54:34.351Z,48.58
2022-08-05T19:57:06.540Z,48.86
2022-08-05T20:00:02.098Z,48.77
2022-08-05T20:02:27.005Z,49.28
2022-08-05T20:04:58.370Z,49.90
2022-08-05T20:07:46.538Z,50.08
2022-08-05T20:10:16.485Z,49.64
2022-08-05T20:12:47.676Z,50.46
2022-08-05T20:15:48.177Z,51.11
2022-08-05T20:18:10.652Z,51.37
2022-08-05T20:20:56.576Z,51.11
2022-08-05T20:23:39.929Z,51.55
2022-08-05T20:26:15.167Z,52.20
2022-08-05T20:28:44.441Z,52.82
2022-08-05T20:31:11.731Z,52.93
2022-08-05T20:33:42.366Z,53.12
2022-08-05T20:36:10.055Z,53.69
2022-08-05T20:38:40.802Z,52.94
2022-08-05T20:41:27.059Z,52.79
2022-08-05T20:44:17.564Z,52.03
2022-08-05T20:46:47.771Z,51.91
2022-08-05T20:49:15.350Z,52.39
2022-08-05T20:51:53.820Z,52.42
2022-08-05T20:54:21.653Z,52.56
2022-08-05T20:56:49.047Z,52.69
2022-08-05T20:59:19.084Z,52.88
2022-08-05T21:01:53.794Z,52.83
2022-08-05T21:04:27.065Z,52.52
2022-08-05T21:06:54.866Z,52.87
2022-08-05T21:09:22.872Z,53.04
2022-08-05T21:12:09.147Z,53.16
2022-08-05T21:14:37.908Z,53.25
2022-08-05T21:17:05.458Z,53.71
2022-08-05T21:19:46.978Z,53.79
2022-08-05T21:22:21.980Z,53.86
2022-08-05T21:24:54.926Z,54.20
2022-08-05T21:27:25.122Z,54.43
2022-08-05T21:29:56.138Z,54.46
2022-08-05T21:32:27.933Z,54.62
2022-08-05T21:35:08.662Z,55.24
2022-08-05T21:37:53.162Z,55.07
2022-08-05T21:40:23.285Z,55.39
2022-08-05T21:42:51.615Z,56.15
2022-08-05T21:45:24.952Z,55.90
2022-08-05T21:48:07.977Z,55.93
2022-08-05T21:50:36.708Z,56.55
2022-08-05T21:53:17.610Z,56.66
2022-08-05T21:56:05.707Z,57.39
2022-08-05T21:58:32.382Z,57.45
2022-08-05T22:00:59.623Z,57.44
2022-08-05T22:03:48.984Z,57.66
2022-08-05T22:06:13.347Z,57.89
2022-08-05T22:08:42.519Z,57.85
2022-08-05T22:11:15.760Z,57.90
2022-08-05T22:14:33.978Z,57.74
2022-08-05T22:16:41.770Z,57.71
2022-08-05T22:20:01.193Z,57.40
2022-08-05T22:22:06.982Z,58.00
2022-08-05T22:25:21.358Z,58.15
2022-08-05T22:28:08.676Z,58.60
2022-08-05T22:30:44.057Z,58.49
2022-08-05T22:33:58.072Z,59.22
2022-08-05T22:36:14.542Z,59.26
2022-08-05T22:38:48.063Z,59.41
2022-08-05T22:42:04.200Z,59.57
2022-08-05T22:44:04.581Z,59.71
2022-08-05T22:46:32.115Z,60.07
2022-08-05T22:48:59.443Z,60.14
2022-08-05T22:51:29.985Z,60.31
2022-08-05T22:54:13.399Z,60.36
2022-08-05T22:56:40.928Z,60.67
2022-08-05T22:59:46.294Z,60.88
2022-08-05T23:02:04.369Z,60.98
2022-08-05T23:04:33.161Z,61.42
2022-08-05T23:07:00.051Z,62.06
2022-08-05T23:09:52.551Z,61.81
2022-08-05T23:12:13.809Z,61.89
2022-08-05T23:14:40.656Z,61.70
2022-08-05T23:17:34.329Z,61.57
2022-08-05T23:20:16.703Z,62.05
2022-08-05T23:22:48.590Z,62.15
2022-08-05T23:25:53.364Z,62.58
2022-08-05T23:28:06.870Z,63.26
2022-08-05T23:30:40.249Z,63.26
2022-08-05T23:33:22.581Z,63.27
2022-08-05T23:36:01.144Z,63.67
2022-08-05T23:38:28.116Z,63.76
2022-08-05T23:40:55.000Z,63.81
2022-08-05T23:43:36.975Z,64.16
2022-08-05T23:46:20.566Z,64.20
2022-08-05T23:49:00.512Z,64.22
2022-08-05T23:51:53.636Z,64.26
2022-08-05T23:54:36.471Z,64.49
2022-08-05T23:57:06.066Z,64.01
